Time;durP1;ratioP1;P1;durP2;ratioP2;P2;SDS_P1;SDS_P2;PMS_P1;PMS_P2;Temp;Humidity;BMP_temperature;BMP_pressure;BME280_temperature;BME280_humidity;BME280_pressure;Samples;Min_cycle;Max_cycle;Signal;HPM_P1;HPM_P2
2023/02/17 05:50:18;;;;;;;56.00;27.80;;;;;;;-2.43;100.00;100183.08;110480;1235;23012;-38
2023/02/17 05:52:48;;;;;;;51.70;26.80;;;;;;;-2.33;100.00;100178.46;112947;1249;22349;-48
2023/02/17 05:55:15;;;;;;;52.90;26.90;;;;;;;-2.25;100.00;100184.16;112997;1249;22453;-41
2023/02/17 05:57:42;;;;;;;41.50;20.50;;;;;;;-2.23;100.00;100179.66;112210;1233;24869;-50
2023/02/17 06:00:10;;;;;;;29.00;16.60;;;;;;;-2.22;100.00;100179.99;111566;1249;23140;-40
2023/02/17 06:02:40;;;;;;;31.10;15.40;;;;;;;-2.26;100.00;100177.77;112561;1248;23321;-40
2023/02/17 06:05:07;;;;;;;25.70;12.40;;;;;;;-2.28;100.00;100178.70;112926;1249;22366;-40
2023/02/17 06:07:34;;;;;;;27.90;16.30;;;;;;;-2.26;100.00;100181.17;112923;1249;22838;-40
2023/02/17 06:10:06;;;;;;;35.10;15.80;;;;;;;-2.24;100.00;100184.70;112934;1249;23235;-49
2023/02/17 06:12:33;;;;;;;31.90;16.80;;;;;;;-2.21;100.00;100183.81;111711;1249;22528;-48
2023/02/17 06:15:00;;;;;;;37.70;16.90;;;;;;;-2.18;100.00;100184.32;112960;1249;22169;-48
2023/02/17 06:17:33;;;;;;;;;;;;;;;-2.15;100.00;100187.02;112927;1249;22347;-49
2023/02/17 06:19:59;;;;;;;35.90;18.10;;;;;;;-2.14;100.00;100185.72;111811;1249;23234;-50
2023/02/17 06:22:26;;;;;;;32.40;17.50;;;;;;;-2.11;100.00;100183.63;112776;1249;22335;-49
2023/02/17 06:24:53;;;;;;;39.90;19.40;;;;;;;-2.05;100.00;100182.39;112251;1248;22612;-41
2023/02/17 06:27:24;;;;;;;37.00;19.10;;;;;;;-1.97;100.00;100181.39;112539;1249;22302;-41
2023/02/17 06:29:53;;;;;;;;;;;;;;;-1.89;100.00;100178.05;112426;1249;22546;-40
2023/02/17 06:32:20;;;;;;;41.40;18.90;;;;;;;-1.78;100.00;100180.25;112468;1249;22532;-40
2023/02/17 06:34:52;;;;;;;36.10;19.30;;;;;;;-1.68;100.00;100181.56;112253;1248;22818;-41
2023/02/17 06:37:53;;;;;;;40.10;20.40;;;;;;;-1.62;100.00;100180.51;112110;1249;22922;-48
2023/02/17 06:41:41;;;;;;;49.60;22.70;;;;;;;-1.55;100.00;100181.70;111747;1249;22271;-49
2023/02/17 06:44:15;;;;;;;45.00;21.70;;;;;;;-1.45;100.00;100176.85;111887;1249;22502;-41
2023/02/17 06:47:27;;;;;;;44.90;22.40;;;;;;;-1.31;100.00;100175.91;112317;1249;22432;-40
2023/02/17 06:50:56;;;;;;;40.40;20.80;;;;;;;-1.24;100.00;100170.23;112319;1248;22526;-50
2023/02/17 06:53:23;;;;;;;42.90;21.80;;;;;;;-1.15;100.00;100172.05;112194;1249;22717;-48
2023/02/17 06:56:40;;;;;;;39.00;21.20;;;;;;;-1.02;100.00;100169.86;112597;1249;22748;-49
2023/02/17 06:59:32;;;;;;;42.00;19.80;;;;;;;-0.88;100.00;100172.39;112803;1247;22323;-50
2023/02/17 07:02:11;;;;;;;36.40;19.60;;;;;;;-0.75;100.00;100177.40;112658;1248;22576;-50
2023/02/17 07:04:39;;;;;;;42.70;24.50;;;;;;;-0.70;100.00;100177.27;112908;1247;23235;-49
2023/02/17 07:07:13;;;;;;;59.50;30.30;;;;;;;-0.65;100.00;100172.85;112343;1247;23165;-40
2023/02/17 07:09:40;;;;;;;43.80;20.30;;;;;;;-0.57;100.00;100174.07;112217;1247;22486;-39
2023/02/17 07:12:08;;;;;;;42.20;21.40;;;;;;;-0.43;100.00;100175.16;112266;1247;23201;-48
2023/02/17 07:14:35;;;;;;;39.10;20.70;;;;;;;-0.31;100.00;100177.57;112832;1247;22358;-49
2023/02/17 07:20:27;;;;;;;47.90;25.40;;;;;;;-0.16;100.00;100181.76;111783;1247;23694;-40
2023/02/17 07:23:28;;;;;;;39.80;20.20;;;;;;;-0.12;100.00;100180.41;112593;1247;22373;-50
2023/02/17 07:26:11;;;;;;;48.70;23.50;;;;;;;-0.07;100.00;100178.01;112825;1247;23215;-48
2023/02/17 07:29:03;;;;;;;41.30;20.60;;;;;;;0.00;100.00;100181.07;112834;1247;22313;-43
2023/02/17 07:31:52;;;;;;;37.10;19.20;;;;;;;0.13;100.00;100174.55;112623;1247;22398;-40
2023/02/17 07:34:19;;;;;;;36.90;21.20;;;;;;;0.19;100.00;100181.15;112780;1247;23206;-48
2023/02/17 07:36:46;;;;;;;35.90;19.70;;;;;;;0.28;99.99;100181.99;112842;1247;22447;-48
2023/02/17 07:39:13;;;;;;;40.40;20.70;;;;;;;0.37;99.97;100183.36;112861;1247;22386;-49
2023/02/17 07:41:40;;;;;;;41.70;20.70;;;;;;;0.43;99.49;100181.05;112817;1247;22308;-49
2023/02/17 07:44:10;;;;;;;37.60;20.90;;;;;;;0.48;99.29;100181.23;112968;1247;22940;-49
2023/02/17 07:46:38;;;;;;;36.10;20.10;;;;;;;0.55;98.47;100183.39;112501;1247;22544;-42
2023/02/17 07:49:05;;;;;;;31.60;17.60;;;;;;;0.61;98.27;100181.89;113071;1247;22483;-41
2023/02/17 07:51:34;;;;;;;32.10;18.90;;;;;;;0.68;97.80;100184.41;112618;1247;22757;-51
2023/02/17 07:54:01;;;;;;;28.60;17.00;;;;;;;0.72;97.17;100188.33;111889;1247;22585;-41
2023/02/17 07:56:33;;;;;;;26.50;14.70;;;;;;;0.75;96.50;100186.73;112322;1247;22645;-50
2023/02/17 07:59:02;;;;;;;26.90;15.50;;;;;;;0.75;95.88;100186.39;111957;1247;23353;-40
2023/02/17 08:01:29;;;;;;;33.90;18.30;;;;;;;0.73;94.65;100188.38;112232;1247;22965;-50
2023/02/17 08:04:03;;;;;;;34.90;16.70;;;;;;;0.67;94.16;100190.02;112588;1247;22278;-42
2023/02/17 08:06:32;;;;;;;30.80;16.80;;;;;;;0.60;93.90;100190.45;112727;1247;22368;-41
2023/02/17 08:14:34;;;;;;;32.70;17.40;;;;;;;0.57;94.53;100195.66;112364;1247;22482;-40
2023/02/17 08:17:24;;;;;;;30.10;17.40;;;;;;;0.61;94.38;100196.14;111883;1247;25509;-41
2023/02/17 08:20:41;;;;;;;32.80;18.60;;;;;;;0.70;94.76;100195.27;111870;1247;22684;-41
2023/02/17 08:27:59;;;;;;;32.50;18.30;;;;;;;1.00;94.14;100196.58;112570;1247;22410;-49
2023/02/17 08:34:58;;;;;;;29.10;17.10;;;;;;;1.18;93.38;100204.61;111714;1247;22499;-43
2023/02/17 08:37:34;;;;;;;26.70;16.40;;;;;;;1.22;93.40;100203.76;112576;1247;22415;-40
2023/02/17 08:40:11;;;;;;;30.50;15.80;;;;;;;1.27;93.03;100198.93;112409;1244;23505;-50
2023/02/17 08:43:33;;;;;;;31.60;17.30;;;;;;;1.31;92.83;100197.20;112483;1247;22406;-41
2023/02/17 08:46:43;;;;;;;31.10;16.30;;;;;;;1.37;92.82;100200.81;112904;1247;22267;-41
2023/02/17 08:49:44;;;;;;;34.70;18.10;;;;;;;1.40;92.64;100203.86;112452;1247;22432;-40
2023/02/17 08:52:12;;;;;;;33.00;18.10;;;;;;;1.46;92.42;100205.95;112742;1240;22245;-41
2023/02/17 08:54:40;;;;;;;35.80;19.70;;;;;;;1.50;92.20;100207.81;112419;1247;22897;-51
2023/02/17 08:57:14;;;;;;;35.30;19.60;;;;;;;1.54;92.14;100208.49;112719;1248;22283;-49
2023/02/17 09:00:03;;;;;;;34.60;19.00;;;;;;;1.60;92.08;100205.75;112379;1247;23228;-50
2023/02/17 09:03:40;;;;;;;39.10;20.10;;;;;;;1.69;91.89;100204.68;112601;1246;22950;-50
2023/02/17 09:06:51;;;;;;;36.60;19.50;;;;;;;1.79;91.69;100199.88;112763;1247;22720;-50
2023/02/17 09:09:39;;;;;;;36.70;19.90;;;;;;;1.86;91.31;100197.00;112620;1247;22943;-49
2023/02/17 09:13:18;;;;;;;37.80;21.70;;;;;;;1.86;90.84;100192.03;112628;1247;22229;-40
2023/02/17 09:18:31;;;;;;;30.00;15.90;;;;;;;1.98;91.16;100191.20;112821;1248;22438;-49
2023/02/17 09:21:11;;;;;;;30.60;18.40;;;;;;;2.04;90.81;100191.41;112618;1247;23268;-40
2023/02/17 09:23:40;;;;;;;32.80;17.50;;;;;;;2.08;90.53;100192.56;112694;1247;22969;-50
2023/02/17 09:26:10;;;;;;;33.80;18.40;;;;;;;2.14;90.27;100193.11;112480;1247;22486;-50
2023/02/17 09:28:38;;;;;;;31.50;17.70;;;;;;;2.20;90.05;100196.75;112836;1247;22373;-40
2023/02/17 09:31:10;;;;;;;37.50;19.90;;;;;;;2.25;89.81;100199.15;112849;1247;23155;-42
2023/02/17 09:33:39;;;;;;;32.50;19.00;;;;;;;2.28;89.43;100199.23;112940;1247;23117;-42
2023/02/17 09:36:08;;;;;;;43.80;21.00;;;;;;;2.28;89.29;100198.57;112346;1247;22474;-49
2023/02/17 09:38:38;;;;;;;36.60;20.80;;;;;;;2.26;89.59;100197.29;112119;1247;22577;-41
2023/02/17 09:41:33;;;;;;;37.80;20.10;;;;;;;2.28;89.62;100194.25;112435;1247;22511;-41
2023/02/17 09:44:00;;;;;;;41.70;20.90;;;;;;;2.32;89.82;100196.77;111740;1248;22368;-40
2023/02/17 09:46:32;;;;;;;33.80;18.20;;;;;;;2.33;89.79;100194.25;111480;1256;22719;-49
2023/02/17 09:49:26;;;;;;;31.10;17.20;;;;;;;2.31;89.66;100196.56;111141;1256;22520;-42
2023/02/17 09:52:28;;;;;;;34.80;18.70;;;;;;;2.26;89.81;100195.21;111793;1256;22812;-41
2023/02/17 09:59:14;;;;;;;38.80;18.70;;;;;;;2.26;90.62;100183.86;111616;1256;22318;-43
2023/02/17 10:01:52;;;;;;;34.20;19.60;;;;;;;2.32;91.08;100186.44;111936;1256;22379;-45
2023/02/17 10:04:20;;;;;;;;;;;;;;;2.39;91.00;100187.55;111792;1256;22367;-52
2023/02/17 10:07:10;;;;;;;33.90;18.40;;;;;;;2.42;90.80;100183.84;111796;1256;22428;-52
2023/02/17 10:10:30;;;;;;;41.40;20.40;;;;;;;2.50;91.07;100180.29;111851;1256;23536;-50
2023/02/17 10:16:17;;;;;;;40.20;21.70;;;;;;;2.67;90.85;100180.81;111545;1256;25685;-49
2023/02/17 10:18:47;;;;;;;36.80;22.50;;;;;;;2.70;90.58;100177.80;111945;1256;22301;-50
2023/02/17 10:21:21;;;;;;;38.80;22.10;;;;;;;2.71;90.55;100180.73;112403;1247;22990;-48
2023/02/17 10:23:48;;;;;;;42.00;22.70;;;;;;;2.72;90.60;100179.20;112729;1247;22257;-49
2023/02/17 10:26:21;;;;;;;37.60;21.30;;;;;;;2.72;90.84;100180.96;111514;1247;22429;-49
2023/02/17 10:28:59;;;;;;;35.40;18.70;;;;;;;2.72;90.88;100181.12;112228;1247;27604;-41
2023/02/17 10:31:46;;;;;;;34.20;19.40;;;;;;;2.77;90.67;100180.08;112769;1247;23055;-40
2023/02/17 10:34:31;;;;;;;34.70;19.40;;;;;;;2.85;90.49;100181.35;112490;1247;23324;-52
2023/02/17 10:37:00;;;;;;;38.40;19.60;;;;;;;2.93;90.17;100178.82;112501;1247;23261;-52
2023/02/17 10:39:36;;;;;;;32.30;18.30;;;;;;;2.97;89.68;100177.20;112435;1247;22891;-52
2023/02/17 10:42:03;;;;;;;30.80;17.90;;;;;;;3.00;89.64;100173.34;112536;1247;22332;-52
2023/02/17 10:44:33;;;;;;;28.30;16.40;;;;;;;3.06;89.37;100172.29;112759;1247;22380;-52
2023/02/17 10:47:00;;;;;;;29.00;17.10;;;;;;;3.10;89.04;100170.35;112617;1247;23139;-51
2023/02/17 10:49:57;;;;;;;38.30;21.70;;;;;;;3.15;88.75;100168.61;112406;1247;22428;-52
2023/02/17 10:53:21;;;;;;;32.70;18.80;;;;;;;3.17;88.66;100167.27;112803;1247;22363;-51
2023/02/17 10:56:30;;;;;;;35.50;19.10;;;;;;;3.24;88.73;100167.63;112652;1247;22832;-51
2023/02/17 11:00:11;;;;;;;36.60;20.80;;;;;;;3.35;88.62;100167.23;112756;1247;22935;-53
2023/02/17 11:03:32;;;;;;;31.90;18.10;;;;;;;3.54;88.08;100174.48;112867;1247;22245;-52
2023/02/17 11:06:18;;;;;;;42.80;23.70;;;;;;;3.60;87.76;100170.85;112387;1247;23125;-52
2023/02/17 11:09:04;;;;;;;46.50;26.30;;;;;;;3.60;87.19;100168.23;112659;1247;23043;-52
2023/02/17 11:11:56;;;;;;;44.50;25.50;;;;;;;3.48;87.53;100168.80;112848;1247;22608;-53
2023/02/17 11:14:26;;;;;;;47.40;25.90;;;;;;;3.38;88.24;100173.35;112513;1246;23151;-52
2023/02/17 11:16:59;;;;;;;48.60;27.30;;;;;;;3.33;88.89;100170.10;112595;1247;22450;-44
2023/02/17 11:19:35;;;;;;;46.50;25.60;;;;;;;3.27;89.28;100170.11;112425;1247;22154;-43
2023/02/17 11:26:57;;;;;;;51.20;26.90;;;;;;;3.24;90.77;100171.75;112813;1247;23138;-52
2023/02/17 11:29:28;;;;;;;52.00;28.90;;;;;;;3.23;90.89;100171.20;112998;1247;22359;-50
2023/02/17 11:32:07;;;;;;;51.40;27.50;;;;;;;3.17;91.17;100169.19;113041;1247;22377;-53
2023/02/17 11:34:36;;;;;;;57.00;28.50;;;;;;;3.09;91.41;100170.32;112705;1247;22349;-54
2023/02/17 11:37:20;;;;;;;59.80;31.70;;;;;;;3.03;91.82;100167.89;112733;1247;22332;-41
2023/02/17 11:39:48;;;;;;;51.80;28.20;;;;;;;2.99;92.45;100171.23;112862;1247;22393;-41
2023/02/17 11:42:26;;;;;;;60.60;29.40;;;;;;;3.00;92.72;100170.73;112644;1247;22369;-39
2023/02/17 11:44:56;;;;;;;56.20;28.60;;;;;;;3.00;92.74;100173.50;112610;1247;22349;-42
2023/02/17 11:47:33;;;;;;;54.70;28.50;;;;;;;3.00;92.85;100167.13;112654;1247;22393;-41
2023/02/17 11:50:45;;;;;;;51.30;28.60;;;;;;;3.01;93.12;100167.67;112426;1247;22316;-51
2023/02/17 11:53:30;;;;;;;59.90;30.20;;;;;;;3.02;93.20;100166.68;111934;1256;22411;-42
2023/02/17 11:56:06;;;;;;;57.00;30.60;;;;;;;3.00;93.29;100173.83;112026;1256;22304;-43
2023/02/17 11:58:56;;;;;;;61.60;30.50;;;;;;;2.94;93.36;100174.73;112010;1256;22819;-43
2023/02/17 12:01:38;;;;;;;67.50;31.40;;;;;;;2.90;93.87;100178.04;112096;1256;22425;-51
2023/02/17 12:04:12;;;;;;;57.90;29.70;;;;;;;2.86;94.20;100182.92;112187;1256;22442;-42
2023/02/17 12:06:45;;;;;;;64.30;31.90;;;;;;;2.82;94.34;100184.37;112129;1256;23468;-51
2023/02/17 12:09:39;;;;;;;63.80;32.90;;;;;;;2.80;94.67;100184.98;112095;1256;23141;-52
2023/02/17 12:12:14;;;;;;;51.40;28.60;;;;;;;2.80;94.99;100181.02;112219;1256;22458;-44
2023/02/17 12:14:56;;;;;;;51.10;27.50;;;;;;;2.80;95.10;100183.09;110756;1256;23248;-52
2023/02/17 12:17:34;;;;;;;51.50;27.20;;;;;;;2.79;95.36;100179.80;111686;1256;22807;-42
2023/02/17 12:20:36;;;;;;;47.80;27.40;;;;;;;2.78;95.71;100177.86;112233;1249;23002;-41
2023/02/17 12:23:18;;;;;;;55.60;27.60;;;;;;;2.79;95.85;100181.16;112156;1256;23182;-41
2023/02/17 12:26:21;;;;;;;59.20;31.80;;;;;;;2.79;96.06;100181.52;112244;1256;22401;-53
2023/02/17 12:28:57;;;;;;;57.50;31.80;;;;;;;2.78;96.31;100182.14;113086;1247;22816;-51
2023/02/17 12:31:36;;;;;;;59.20;33.40;;;;;;;2.76;96.52;100183.14;112884;1247;23248;-44
2023/02/17 12:34:21;;;;;;;60.80;33.20;;;;;;;2.74;96.81;100184.13;113093;1247;22423;-42
2023/02/17 12:36:48;;;;;;;58.00;33.00;;;;;;;2.73;97.01;100185.99;112906;1247;22422;-44
2023/02/17 12:39:21;;;;;;;62.90;33.10;;;;;;;2.75;97.23;100185.18;112907;1247;22370;-52
2023/02/17 12:41:59;;;;;;;59.80;32.30;;;;;;;2.77;97.08;100187.98;112849;1247;23284;-52
2023/02/17 12:44:34;;;;;;;67.60;32.50;;;;;;;2.77;97.27;100188.15;113087;1247;22852;-42
2023/02/17 12:47:05;;;;;;;59.60;33.40;;;;;;;2.77;97.27;100189.54;112840;1247;22373;-42
2023/02/17 12:49:37;;;;;;;68.30;33.20;;;;;;;2.77;97.30;100186.77;112887;1247;23084;-51
2023/02/17 12:52:04;;;;;;;63.00;35.00;;;;;;;2.77;97.41;100179.71;112324;1248;22450;-43
2023/02/17 12:54:35;;;;;;;66.10;37.00;;;;;;;2.78;97.41;100183.36;113131;1247;22604;-51
2023/02/17 12:57:28;;;;;;;78.60;40.30;;;;;;;2.80;97.55;100186.88;111326;1248;22508;-43
2023/02/17 12:59:55;;;;;;;62.80;34.10;;;;;;;2.83;97.54;100183.02;111455;1248;23262;-51
2023/02/17 13:02:23;;;;;;;77.20;39.00;;;;;;;2.87;97.71;100184.52;111642;1247;23221;-51
2023/02/17 13:04:52;;;;;;;71.00;35.90;;;;;;;2.93;97.69;100182.60;111260;1247;22498;-42
2023/02/17 13:07:40;;;;;;;69.50;35.50;;;;;;;3.00;97.62;100183.51;110843;1247;22536;-52
2023/02/17 13:10:20;;;;;;;61.50;34.40;;;;;;;3.08;97.45;100185.44;110705;1247;22527;-40
2023/02/17 13:12:58;;;;;;;54.10;31.00;;;;;;;3.10;97.19;100184.65;110297;1247;25221;-41
2023/02/17 13:15:29;;;;;;;64.90;36.00;;;;;;;3.12;96.86;100182.80;109868;1248;22633;-42
2023/02/17 13:18:02;;;;;;;71.30;37.50;;;;;;;3.10;96.56;100185.52;110611;1248;22835;-44
